sensor_id;sensor_type;location;lat;lon;timestamp;P1;durP1;ratioP1;P2;durP2;ratioP2
72053;SDS011;59918;51.280;7.950;2023-02-15T00:00:42;18.30;;;10.63;;
72053;SDS011;59918;51.280;7.950;2023-02-15T00:03:07;19.50;;;10.48;;
72053;SDS011;59918;51.280;7.950;2023-02-15T00:05:33;21.05;;;10.10;;
72053;SDS011;59918;51.280;7.950;2023-02-15T00:07:58;19.35;;;10.30;;
72053;SDS011;59918;51.280;7.950;2023-02-15T00:10:23;19.65;;;10.32;;
72053;SDS011;59918;51.280;7.950;2023-02-15T00:12:52;17.58;;;10.07;;
72053;SDS011;59918;51.280;7.950;2023-02-15T00:15:17;20.15;;;11.57;;
72053;SDS011;59918;51.280;7.950;2023-02-15T00:17:42;18.58;;;10.27;;
72053;SDS011;59918;51.280;7.950;2023-02-15T00:20:08;18.08;;;10.23;;
72053;SDS011;59918;51.280;7.950;2023-02-15T00:22:33;19.08;;;10.32;;
72053;SDS011;59918;51.280;7.950;2023-02-15T00:24:58;20.30;;;10.43;;
72053;SDS011;59918;51.280;7.950;2023-02-15T00:27:24;18.40;;;9.88;;
72053;SDS011;59918;51.280;7.950;2023-02-15T00:29:55;21.20;;;10.82;;
72053;SDS011;59918;51.280;7.950;2023-02-15T00:32:20;19.88;;;10.48;;
72053;SDS011;59918;51.280;7.950;2023-02-15T00:34:45;22.55;;;10.63;;
72053;SDS011;59918;51.280;7.950;2023-02-15T00:37:10;19.05;;;10.57;;
72053;SDS011;59918;51.280;7.950;2023-02-15T00:39:36;19.67;;;10.25;;
72053;SDS011;59918;51.280;7.950;2023-02-15T00:42:04;16.75;;;9.73;;
72053;SDS011;59918;51.280;7.950;2023-02-15T00:44:29;18.13;;;9.95;;
72053;SDS011;59918;51.280;7.950;2023-02-15T00:46:54;17.48;;;9.40;;
72053;SDS011;59918;51.280;7.950;2023-02-15T00:49:19;19.02;;;10.32;;
72053;SDS011;59918;51.280;7.950;2023-02-15T00:51:45;18.55;;;11.23;;
72053;SDS011;59918;51.280;7.950;2023-02-15T00:54:10;17.35;;;9.65;;
72053;SDS011;59918;51.280;7.950;2023-02-15T00:56:35;22.20;;;10.23;;
72053;SDS011;59918;51.280;7.950;2023-02-15T00:59:04;20.23;;;10.45;;
72053;SDS011;59918;51.280;7.950;2023-02-15T01:01:29;22.42;;;10.60;;
72053;SDS011;59918;51.280;7.950;2023-02-15T01:03:54;22.92;;;12.27;;
72053;SDS011;59918;51.280;7.950;2023-02-15T01:06:19;24.80;;;11.70;;
72053;SDS011;59918;51.280;7.950;2023-02-15T01:08:45;20.15;;;10.93;;
72053;SDS011;59918;51.280;7.950;2023-02-15T01:11:12;23.17;;;11.15;;
72053;SDS011;59918;51.280;7.950;2023-02-15T01:13:44;21.20;;;11.18;;
72053;SDS011;59918;51.280;7.950;2023-02-15T01:16:10;19.55;;;11.30;;
72053;SDS011;59918;51.280;7.950;2023-02-15T01:18:35;20.55;;;11.18;;
72053;SDS011;59918;51.280;7.950;2023-02-15T01:21:10;21.15;;;11.52;;
72053;SDS011;59918;51.280;7.950;2023-02-15T01:23:41;16.85;;;10.38;;
72053;SDS011;59918;51.280;7.950;2023-02-15T01:26:06;18.70;;;11.00;;
72053;SDS011;59918;51.280;7.950;2023-02-15T01:28:32;21.10;;;10.65;;
72053;SDS011;59918;51.280;7.950;2023-02-15T01:31:03;19.17;;;10.57;;
72053;SDS011;59918;51.280;7.950;2023-02-15T01:33:33;22.17;;;10.73;;
72053;SDS011;59918;51.280;7.950;2023-02-15T01:35:58;19.10;;;11.07;;
72053;SDS011;59918;51.280;7.950;2023-02-15T01:38:23;18.08;;;9.38;;
72053;SDS011;59918;51.280;7.950;2023-02-15T01:40:52;20.10;;;10.10;;
72053;SDS011;59918;51.280;7.950;2023-02-15T01:43:18;19.70;;;11.68;;
72053;SDS011;59918;51.280;7.950;2023-02-15T01:45:45;20.70;;;10.18;;
72053;SDS011;59918;51.280;7.950;2023-02-15T01:48:20;20.85;;;10.45;;
72053;SDS011;59918;51.280;7.950;2023-02-15T01:50:53;22.30;;;11.52;;
72053;SDS011;59918;51.280;7.950;2023-02-15T01:53:25;18.98;;;10.63;;
72053;SDS011;59918;51.280;7.950;2023-02-15T01:56:08;18.05;;;10.85;;
72053;SDS011;59918;51.280;7.950;2023-02-15T01:58:41;21.90;;;11.02;;
72053;SDS011;59918;51.280;7.950;2023-02-15T02:01:08;23.88;;;10.70;;
72053;SDS011;59918;51.280;7.950;2023-02-15T02:06:29;22.38;;;10.70;;
72053;SDS011;59918;51.280;7.950;2023-02-15T02:08:54;26.73;;;10.10;;
72053;SDS011;59918;51.280;7.950;2023-02-15T02:11:21;18.35;;;10.80;;
72053;SDS011;59918;51.280;7.950;2023-02-15T02:13:46;21.25;;;10.98;;
72053;SDS011;59918;51.280;7.950;2023-02-15T02:16:25;18.90;;;9.90;;
72053;SDS011;59918;51.280;7.950;2023-02-15T02:24:58;21.08;;;11.93;;
72053;SDS011;59918;51.280;7.950;2023-02-15T02:36:22;21.67;;;11.45;;
72053;SDS011;59918;51.280;7.950;2023-02-15T02:44:31;20.77;;;10.93;;
72053;SDS011;59918;51.280;7.950;2023-02-15T02:47:22;20.90;;;10.23;;
72053;SDS011;59918;51.280;7.950;2023-02-15T02:52:54;21.55;;;10.65;;
72053;SDS011;59918;51.280;7.950;2023-02-15T03:00:45;23.42;;;12.10;;
72053;SDS011;59918;51.280;7.950;2023-02-15T03:03:36;19.75;;;10.68;;
72053;SDS011;59918;51.280;7.950;2023-02-15T03:06:21;22.08;;;11.23;;
72053;SDS011;59918;51.280;7.950;2023-02-15T03:08:58;20.73;;;10.68;;
72053;SDS011;59918;51.280;7.950;2023-02-15T03:11:37;20.30;;;11.43;;
72053;SDS011;59918;51.280;7.950;2023-02-15T03:14:12;21.90;;;11.18;;
72053;SDS011;59918;51.280;7.950;2023-02-15T03:16:43;22.35;;;12.18;;
72053;SDS011;59918;51.280;7.950;2023-02-15T03:19:13;26.10;;;12.05;;
72053;SDS011;59918;51.280;7.950;2023-02-15T03:24:11;25.58;;;12.60;;
72053;SDS011;59918;51.280;7.950;2023-02-15T03:29:08;28.48;;;12.90;;
72053;SDS011;59918;51.280;7.950;2023-02-15T03:31:37;27.75;;;12.25;;
72053;SDS011;59918;51.280;7.950;2023-02-15T03:34:10;23.48;;;11.95;;
72053;SDS011;59918;51.280;7.950;2023-02-15T03:36:44;25.55;;;12.63;;
72053;SDS011;59918;51.280;7.950;2023-02-15T03:41:49;25.40;;;11.90;;
72053;SDS011;59918;51.280;7.950;2023-02-15T03:44:27;21.55;;;11.52;;
72053;SDS011;59918;51.280;7.950;2023-02-15T03:47:02;26.55;;;11.95;;
72053;SDS011;59918;51.280;7.950;2023-02-15T03:52:41;25.95;;;12.55;;
72053;SDS011;59918;51.280;7.950;2023-02-15T03:55:07;20.60;;;10.88;;
72053;SDS011;59918;51.280;7.950;2023-02-15T03:57:32;22.63;;;11.43;;
72053;SDS011;59918;51.280;7.950;2023-02-15T04:00:02;20.42;;;11.70;;
72053;SDS011;59918;51.280;7.950;2023-02-15T04:05:13;27.13;;;11.98;;
72053;SDS011;59918;51.280;7.950;2023-02-15T04:07:41;25.13;;;12.25;;
72053;SDS011;59918;51.280;7.950;2023-02-15T04:10:06;21.83;;;11.73;;
72053;SDS011;59918;51.280;7.950;2023-02-15T04:12:32;23.05;;;12.20;;
72053;SDS011;59918;51.280;7.950;2023-02-15T04:14:57;27.20;;;12.80;;
72053;SDS011;59918;51.280;7.950;2023-02-15T04:17:22;63.67;;;25.08;;
72053;SDS011;59918;51.280;7.950;2023-02-15T04:19:48;27.70;;;13.70;;
72053;SDS011;59918;51.280;7.950;2023-02-15T04:22:13;24.55;;;12.55;;
72053;SDS011;59918;51.280;7.950;2023-02-15T04:24:41;26.40;;;12.60;;
72053;SDS011;59918;51.280;7.950;2023-02-15T04:27:07;25.35;;;12.10;;
72053;SDS011;59918;51.280;7.950;2023-02-15T04:29:32;27.63;;;12.13;;
72053;SDS011;59918;51.280;7.950;2023-02-15T04:32:01;24.77;;;12.18;;
72053;SDS011;59918;51.280;7.950;2023-02-15T04:34:30;24.90;;;12.15;;
72053;SDS011;59918;51.280;7.950;2023-02-15T04:36:55;25.60;;;11.13;;
72053;SDS011;59918;51.280;7.950;2023-02-15T04:39:20;24.17;;;12.27;;
72053;SDS011;59918;51.280;7.950;2023-02-15T04:41:46;25.17;;;12.55;;
72053;SDS011;59918;51.280;7.950;2023-02-15T04:44:11;24.40;;;12.00;;
72053;SDS011;59918;51.280;7.950;2023-02-15T04:46:36;24.95;;;12.90;;
72053;SDS011;59918;51.280;7.950;2023-02-15T04:49:02;25.02;;;12.18;;
72053;SDS011;59918;51.280;7.950;2023-02-15T04:51:30;24.38;;;11.38;;
72053;SDS011;59918;51.280;7.950;2023-02-15T04:53:56;25.35;;;11.35;;
72053;SDS011;59918;51.280;7.950;2023-02-15T04:56:21;25.55;;;10.90;;
72053;SDS011;59918;51.280;7.950;2023-02-15T04:58:46;23.08;;;11.10;;
72053;SDS011;59918;51.280;7.950;2023-02-15T05:01:12;26.05;;;11.70;;
72053;SDS011;59918;51.280;7.950;2023-02-15T05:03:37;24.27;;;11.20;;
72053;SDS011;59918;51.280;7.950;2023-02-15T05:06:03;23.55;;;11.00;;
72053;SDS011;59918;51.280;7.950;2023-02-15T05:08:31;25.20;;;11.40;;
72053;SDS011;59918;51.280;7.950;2023-02-15T05:10:57;27.08;;;11.95;;
72053;SDS011;59918;51.280;7.950;2023-02-15T05:13:23;29.98;;;11.32;;
72053;SDS011;59918;51.280;7.950;2023-02-15T05:15:51;21.33;;;11.20;;
72053;SDS011;59918;51.280;7.950;2023-02-15T05:18:22;24.10;;;10.93;;
72053;SDS011;59918;51.280;7.950;2023-02-15T05:20:48;23.63;;;10.45;;
72053;SDS011;59918;51.280;7.950;2023-02-15T05:23:13;19.25;;;10.45;;
72053;SDS011;59918;51.280;7.950;2023-02-15T05:25:39;21.17;;;10.60;;
72053;SDS011;59918;51.280;7.950;2023-02-15T05:28:05;22.00;;;10.35;;
72053;SDS011;59918;51.280;7.950;2023-02-15T05:30:42;19.98;;;10.20;;
72053;SDS011;59918;51.280;7.950;2023-02-15T05:33:07;24.25;;;11.00;;
72053;SDS011;59918;51.280;7.950;2023-02-15T05:35:35;21.50;;;11.25;;
72053;SDS011;59918;51.280;7.950;2023-02-15T05:38:01;20.65;;;10.95;;
72053;SDS011;59918;51.280;7.950;2023-02-15T05:40:26;22.48;;;11.18;;
72053;SDS011;59918;51.280;7.950;2023-02-15T05:42:51;25.80;;;11.73;;
72053;SDS011;59918;51.280;7.950;2023-02-15T05:45:16;26.58;;;11.93;;
72053;SDS011;59918;51.280;7.950;2023-02-15T05:47:47;26.52;;;13.25;;
72053;SDS011;59918;51.280;7.950;2023-02-15T05:50:13;28.52;;;13.52;;
72053;SDS011;59918;51.280;7.950;2023-02-15T05:52:38;25.05;;;12.73;;
72053;SDS011;59918;51.280;7.950;2023-02-15T05:55:04;22.08;;;10.95;;
72053;SDS011;59918;51.280;7.950;2023-02-15T05:57:30;24.38;;;11.38;;
72053;SDS011;59918;51.280;7.950;2023-02-15T05:59:55;23.63;;;10.68;;
72053;SDS011;59918;51.280;7.950;2023-02-15T06:02:24;26.58;;;11.50;;
72053;SDS011;59918;51.280;7.950;2023-02-15T06:04:49;18.98;;;9.93;;
72053;SDS011;59918;51.280;7.950;2023-02-15T06:07:14;22.60;;;10.82;;
72053;SDS011;59918;51.280;7.950;2023-02-15T06:09:39;25.85;;;11.25;;
72053;SDS011;59918;51.280;7.950;2023-02-15T06:12:05;20.75;;;10.73;;
72053;SDS011;59918;51.280;7.950;2023-02-15T06:14:30;33.78;;;13.98;;
72053;SDS011;59918;51.280;7.950;2023-02-15T06:16:55;28.90;;;12.25;;
72053;SDS011;59918;51.280;7.950;2023-02-15T06:19:27;21.33;;;10.25;;
72053;SDS011;59918;51.280;7.950;2023-02-15T06:21:52;35.23;;;12.77;;
72053;SDS011;59918;51.280;7.950;2023-02-15T06:24:17;31.08;;;11.98;;
72053;SDS011;59918;51.280;7.950;2023-02-15T06:26:42;31.50;;;13.70;;
72053;SDS011;59918;51.280;7.950;2023-02-15T06:29:08;26.55;;;13.38;;
72053;SDS011;59918;51.280;7.950;2023-02-15T06:31:36;27.92;;;12.43;;
72053;SDS011;59918;51.280;7.950;2023-02-15T06:34:01;26.13;;;12.20;;
72053;SDS011;59918;51.280;7.950;2023-02-15T06:36:27;24.85;;;12.10;;
72053;SDS011;59918;51.280;7.950;2023-02-15T06:38:53;26.70;;;12.27;;
72053;SDS011;59918;51.280;7.950;2023-02-15T06:41:18;23.42;;;11.43;;
72053;SDS011;59918;51.280;7.950;2023-02-15T06:43:43;22.75;;;11.50;;
72053;SDS011;59918;51.280;7.950;2023-02-15T06:46:12;19.63;;;10.82;;
72053;SDS011;59918;51.280;7.950;2023-02-15T06:48:37;22.48;;;10.88;;
72053;SDS011;59918;51.280;7.950;2023-02-15T06:51:03;26.98;;;10.35;;
72053;SDS011;59918;51.280;7.950;2023-02-15T06:53:28;20.40;;;9.63;;
72053;SDS011;59918;51.280;7.950;2023-02-15T06:55:59;22.85;;;11.30;;
72053;SDS011;59918;51.280;7.950;2023-02-15T06:58:27;25.48;;;11.25;;
72053;SDS011;59918;51.280;7.950;2023-02-15T07:00:52;26.65;;;11.95;;
72053;SDS011;59918;51.280;7.950;2023-02-15T07:03:18;22.85;;;10.80;;
72053;SDS011;59918;51.280;7.950;2023-02-15T07:05:43;26.05;;;11.82;;
72053;SDS011;59918;51.280;7.950;2023-02-15T07:08:14;20.30;;;10.25;;
72053;SDS011;59918;51.280;7.950;2023-02-15T07:10:43;21.03;;;10.63;;
72053;SDS011;59918;51.280;7.950;2023-02-15T07:13:12;22.77;;;10.63;;
72053;SDS011;59918;51.280;7.950;2023-02-15T07:15:37;21.73;;;11.20;;
72053;SDS011;59918;51.280;7.950;2023-02-15T07:18:02;21.60;;;10.32;;
72053;SDS011;59918;51.280;7.950;2023-02-15T07:20:27;22.90;;;10.45;;
72053;SDS011;59918;51.280;7.950;2023-02-15T07:22:53;22.38;;;10.63;;
72053;SDS011;59918;51.280;7.950;2023-02-15T07:25:18;21.73;;;10.85;;
72053;SDS011;59918;51.280;7.950;2023-02-15T07:27:43;22.67;;;11.57;;
72053;SDS011;59918;51.280;7.950;2023-02-15T07:30:15;21.75;;;11.13;;
72053;SDS011;59918;51.280;7.950;2023-02-15T07:32:41;22.85;;;11.02;;
72053;SDS011;59918;51.280;7.950;2023-02-15T07:35:06;21.58;;;10.57;;
72053;SDS011;59918;51.280;7.950;2023-02-15T07:37:32;23.80;;;11.70;;
72053;SDS011;59918;51.280;7.950;2023-02-15T07:40:03;22.75;;;11.35;;
72053;SDS011;59918;51.280;7.950;2023-02-15T07:42:30;21.80;;;10.73;;
72053;SDS011;59918;51.280;7.950;2023-02-15T07:44:55;22.88;;;10.25;;
72053;SDS011;59918;51.280;7.950;2023-02-15T07:47:20;21.20;;;10.60;;
72053;SDS011;59918;51.280;7.950;2023-02-15T07:49:51;20.27;;;9.93;;
72053;SDS011;59918;51.280;7.950;2023-02-15T07:52:17;18.75;;;10.10;;
72053;SDS011;59918;51.280;7.950;2023-02-15T07:54:42;22.15;;;10.77;;
72053;SDS011;59918;51.280;7.950;2023-02-15T07:57:07;19.15;;;9.75;;
72053;SDS011;59918;51.280;7.950;2023-02-15T07:59:38;21.17;;;11.18;;
72053;SDS011;59918;51.280;7.950;2023-02-15T08:02:05;24.08;;;10.35;;
72053;SDS011;59918;51.280;7.950;2023-02-15T08:04:37;23.13;;;10.52;;
72053;SDS011;59918;51.280;7.950;2023-02-15T08:07:02;20.55;;;10.57;;
72053;SDS011;59918;51.280;7.950;2023-02-15T08:09:28;19.92;;;9.13;;
72053;SDS011;59918;51.280;7.950;2023-02-15T08:11:53;20.75;;;10.30;;
72053;SDS011;59918;51.280;7.950;2023-02-15T08:14:19;20.98;;;10.27;;
72053;SDS011;59918;51.280;7.950;2023-02-15T08:16:49;23.88;;;10.98;;
72053;SDS011;59918;51.280;7.950;2023-02-15T08:19:17;21.33;;;9.88;;
72053;SDS011;59918;51.280;7.950;2023-02-15T08:24:20;20.48;;;10.80;;
72053;SDS011;59918;51.280;7.950;2023-02-15T08:26:53;16.88;;;8.73;;
72053;SDS011;59918;51.280;7.950;2023-02-15T08:29:19;20.60;;;10.25;;
72053;SDS011;59918;51.280;7.950;2023-02-15T08:31:49;14.80;;;8.77;;
72053;SDS011;59918;51.280;7.950;2023-02-15T08:34:18;20.38;;;11.15;;
72053;SDS011;59918;51.280;7.950;2023-02-15T08:39:19;21.23;;;9.88;;
72053;SDS011;59918;51.280;7.950;2023-02-15T08:41:45;21.63;;;9.90;;
72053;SDS011;59918;51.280;7.950;2023-02-15T08:44:14;21.67;;;10.98;;
72053;SDS011;59918;51.280;7.950;2023-02-15T08:46:41;21.80;;;10.27;;
72053;SDS011;59918;51.280;7.950;2023-02-15T08:49:08;19.02;;;9.70;;
72053;SDS011;59918;51.280;7.950;2023-02-15T08:51:37;18.85;;;10.77;;
72053;SDS011;59918;51.280;7.950;2023-02-15T08:54:04;19.08;;;10.05;;
72053;SDS011;59918;51.280;7.950;2023-02-15T08:56:32;23.75;;;10.32;;
72053;SDS011;59918;51.280;7.950;2023-02-15T08:59:02;18.30;;;9.55;;
72053;SDS011;59918;51.280;7.950;2023-02-15T09:01:29;18.95;;;9.07;;
72053;SDS011;59918;51.280;7.950;2023-02-15T09:04:05;18.52;;;9.23;;
72053;SDS011;59918;51.280;7.950;2023-02-15T09:06:32;20.38;;;10.38;;
72053;SDS011;59918;51.280;7.950;2023-02-15T09:09:01;17.88;;;9.48;;
72053;SDS011;59918;51.280;7.950;2023-02-15T09:11:27;18.17;;;10.13;;
72053;SDS011;59918;51.280;7.950;2023-02-15T09:13:55;14.82;;;8.80;;
72053;SDS011;59918;51.280;7.950;2023-02-15T09:16:42;16.13;;;8.23;;
72053;SDS011;59918;51.280;7.950;2023-02-15T09:19:18;17.98;;;10.23;;
72053;SDS011;59918;51.280;7.950;2023-02-15T09:21:44;19.30;;;8.77;;
72053;SDS011;59918;51.280;7.950;2023-02-15T09:24:13;19.17;;;10.15;;
72053;SDS011;59918;51.280;7.950;2023-02-15T09:26:41;15.18;;;8.93;;
72053;SDS011;59918;51.280;7.950;2023-02-15T09:29:08;17.35;;;8.70;;
72053;SDS011;59918;51.280;7.950;2023-02-15T09:31:38;17.73;;;9.73;;
72053;SDS011;59918;51.280;7.950;2023-02-15T09:34:05;18.67;;;8.27;;
72053;SDS011;59918;51.280;7.950;2023-02-15T09:36:34;18.27;;;9.27;;
72053;SDS011;59918;51.280;7.950;2023-02-15T09:53:13;15.65;;;9.00;;
72053;SDS011;59918;51.280;7.950;2023-02-15T10:10:17;13.68;;;7.05;;
72053;SDS011;59918;51.280;7.950;2023-02-15T10:15:58;13.88;;;7.63;;
72053;SDS011;59918;51.280;7.950;2023-02-15T10:23:55;16.70;;;9.18;;
72053;SDS011;59918;51.280;7.950;2023-02-15T10:26:45;11.82;;;7.78;;
72053;SDS011;59918;51.280;7.950;2023-02-15T10:32:43;14.48;;;7.55;;
72053;SDS011;59918;51.280;7.950;2023-02-15T10:34:59;16.25;;;7.90;;
72053;SDS011;59918;51.280;7.950;2023-02-15T10:51:05;11.50;;;7.05;;
72053;SDS011;59918;51.280;7.950;2023-02-15T10:56:55;10.57;;;6.80;;
72053;SDS011;59918;51.280;7.950;2023-02-15T11:02:24;13.18;;;7.38;;
72053;SDS011;59918;51.280;7.950;2023-02-15T11:05:01;13.02;;;7.80;;
72053;SDS011;59918;51.280;7.950;2023-02-15T11:07:31;12.18;;;7.40;;
72053;SDS011;59918;51.280;7.950;2023-02-15T11:12:44;11.68;;;7.20;;
72053;SDS011;59918;51.280;7.950;2023-02-15T11:18:19;13.63;;;8.13;;
72053;SDS011;59918;51.280;7.950;2023-02-15T11:20:54;12.85;;;7.68;;
72053;SDS011;59918;51.280;7.950;2023-02-15T11:23:27;9.93;;;6.82;;
72053;SDS011;59918;51.280;7.950;2023-02-15T11:25:57;12.63;;;7.65;;
72053;SDS011;59918;51.280;7.950;2023-02-15T11:28:33;11.15;;;7.15;;
72053;SDS011;59918;51.280;7.950;2023-02-15T11:31:12;12.55;;;8.27;;
72053;SDS011;59918;51.280;7.950;2023-02-15T11:33:43;13.40;;;7.32;;
72053;SDS011;59918;51.280;7.950;2023-02-15T11:36:17;11.00;;;7.70;;
72053;SDS011;59918;51.280;7.950;2023-02-15T11:38:46;12.27;;;8.00;;
72053;SDS011;59918;51.280;7.950;2023-02-15T11:41:22;12.52;;;7.68;;
72053;SDS011;59918;51.280;7.950;2023-02-15T11:44:01;11.77;;;8.13;;
72053;SDS011;59918;51.280;7.950;2023-02-15T11:46:33;12.05;;;7.25;;
72053;SDS011;59918;51.280;7.950;2023-02-15T11:48:59;10.55;;;7.38;;
72053;SDS011;59918;51.280;7.950;2023-02-15T11:51:27;12.82;;;8.85;;
72053;SDS011;59918;51.280;7.950;2023-02-15T11:53:52;10.60;;;7.90;;
72053;SDS011;59918;51.280;7.950;2023-02-15T11:56:19;11.02;;;7.80;;
72053;SDS011;59918;51.280;7.950;2023-02-15T11:59:00;13.40;;;8.20;;
72053;SDS011;59918;51.280;7.950;2023-02-15T12:01:41;13.38;;;8.57;;
72053;SDS011;59918;51.280;7.950;2023-02-15T12:06:44;11.03;;;7.80;;
72053;SDS011;59918;51.280;7.950;2023-02-15T12:14:48;12.38;;;8.77;;
72053;SDS011;59918;51.280;7.950;2023-02-15T12:17:20;10.95;;;7.97;;
72053;SDS011;59918;51.280;7.950;2023-02-15T12:19:46;12.07;;;8.63;;
72053;SDS011;59918;51.280;7.950;2023-02-15T12:22:22;10.23;;;7.50;;
72053;SDS011;59918;51.280;7.950;2023-02-15T12:24:54;10.90;;;7.22;;
72053;SDS011;59918;51.280;7.950;2023-02-15T12:27:22;12.48;;;8.45;;
72053;SDS011;59918;51.280;7.950;2023-02-15T12:29:56;10.77;;;7.93;;
72053;SDS011;59918;51.280;7.950;2023-02-15T12:32:28;10.18;;;7.85;;
72053;SDS011;59918;51.280;7.950;2023-02-15T12:40:23;14.20;;;9.30;;
72053;SDS011;59918;51.280;7.950;2023-02-15T12:42:52;14.32;;;7.78;;
72053;SDS011;59918;51.280;7.950;2023-02-15T12:45:33;13.77;;;8.60;;
72053;SDS011;59918;51.280;7.950;2023-02-15T12:50:40;12.63;;;8.05;;
72053;SDS011;59918;51.280;7.950;2023-02-15T12:55:59;14.95;;;9.05;;
72053;SDS011;59918;51.280;7.950;2023-02-15T12:58:35;11.65;;;8.70;;
72053;SDS011;59918;51.280;7.950;2023-02-15T13:03:33;12.15;;;8.05;;
72053;SDS011;59918;51.280;7.950;2023-02-15T13:05:59;13.00;;;8.63;;
72053;SDS011;59918;51.280;7.950;2023-02-15T13:08:37;10.55;;;7.80;;
72053;SDS011;59918;51.280;7.950;2023-02-15T13:11:31;12.07;;;7.57;;
72053;SDS011;59918;51.280;7.950;2023-02-15T13:14:00;11.70;;;7.68;;
72053;SDS011;59918;51.280;7.950;2023-02-15T13:16:42;12.65;;;8.98;;
72053;SDS011;59918;51.280;7.950;2023-02-15T13:19:12;10.32;;;7.82;;
72053;SDS011;59918;51.280;7.950;2023-02-15T13:21:54;12.13;;;7.55;;
72053;SDS011;59918;51.280;7.950;2023-02-15T13:24:25;12.40;;;8.20;;
72053;SDS011;59918;51.280;7.950;2023-02-15T13:27:21;9.10;;;7.47;;
72053;SDS011;59918;51.280;7.950;2023-02-15T13:29:56;9.10;;;7.57;;
72053;SDS011;59918;51.280;7.950;2023-02-15T13:32:35;10.32;;;7.60;;
72053;SDS011;59918;51.280;7.950;2023-02-15T13:35:03;11.73;;;8.05;;
72053;SDS011;59918;51.280;7.950;2023-02-15T13:43:11;12.63;;;7.82;;
72053;SDS011;59918;51.280;7.950;2023-02-15T13:51:34;10.27;;;7.63;;
72053;SDS011;59918;51.280;7.950;2023-02-15T13:57:35;14.93;;;8.57;;
72053;SDS011;59918;51.280;7.950;2023-02-15T14:03:12;11.45;;;8.45;;
72053;SDS011;59918;51.280;7.950;2023-02-15T14:05:56;12.07;;;8.10;;
72053;SDS011;59918;51.280;7.950;2023-02-15T14:11:35;9.95;;;7.90;;
72053;SDS011;59918;51.280;7.950;2023-02-15T14:14:49;10.85;;;7.80;;
72053;SDS011;59918;51.280;7.950;2023-02-15T14:17:23;11.13;;;8.27;;
72053;SDS011;59918;51.280;7.950;2023-02-15T14:29:09;13.88;;;8.20;;
72053;SDS011;59918;51.280;7.950;2023-02-15T14:31:54;11.02;;;7.00;;
72053;SDS011;59918;51.280;7.950;2023-02-15T14:37:18;10.45;;;7.70;;
72053;SDS011;59918;51.280;7.950;2023-02-15T14:40:48;16.75;;;9.55;;
72053;SDS011;59918;51.280;7.950;2023-02-15T14:45:33;10.57;;;7.55;;
72053;SDS011;59918;51.280;7.950;2023-02-15T14:50:52;10.23;;;8.15;;
72053;SDS011;59918;51.280;7.950;2023-02-15T15:04:25;11.05;;;7.38;;
72053;SDS011;59918;51.280;7.950;2023-02-15T15:10:35;9.60;;;7.55;;
72053;SDS011;59918;51.280;7.950;2023-02-15T15:17:54;11.88;;;8.13;;
72053;SDS011;59918;51.280;7.950;2023-02-15T15:41:46;19.38;;;9.25;;
72053;SDS011;59918;51.280;7.950;2023-02-15T15:47:26;17.30;;;8.43;;
72053;SDS011;59918;51.280;7.950;2023-02-15T15:50:21;15.50;;;8.60;;
72053;SDS011;59918;51.280;7.950;2023-02-15T15:52:48;15.65;;;8.27;;
72053;SDS011;59918;51.280;7.950;2023-02-15T15:55:20;14.20;;;8.20;;
72053;SDS011;59918;51.280;7.950;2023-02-15T15:57:56;14.13;;;8.50;;
72053;SDS011;59918;51.280;7.950;2023-02-15T16:03:13;14.45;;;8.45;;
72053;SDS011;59918;51.280;7.950;2023-02-15T16:05:46;15.10;;;8.70;;
72053;SDS011;59918;51.280;7.950;2023-02-15T16:08:12;12.93;;;7.30;;
72053;SDS011;59918;51.280;7.950;2023-02-15T16:10:53;12.32;;;7.57;;
72053;SDS011;59918;51.280;7.950;2023-02-15T16:13:18;12.20;;;7.32;;
72053;SDS011;59918;51.280;7.950;2023-02-15T16:15:44;12.88;;;7.35;;
72053;SDS011;59918;51.280;7.950;2023-02-15T16:18:18;13.68;;;7.65;;
72053;SDS011;59918;51.280;7.950;2023-02-15T16:21:04;10.57;;;7.38;;
72053;SDS011;59918;51.280;7.950;2023-02-15T16:28:53;11.48;;;6.30;;
72053;SDS011;59918;51.280;7.950;2023-02-15T16:31:19;12.70;;;6.97;;
72053;SDS011;59918;51.280;7.950;2023-02-15T16:33:47;10.55;;;6.78;;
72053;SDS011;59918;51.280;7.950;2023-02-15T16:36:23;9.90;;;6.65;;
72053;SDS011;59918;51.280;7.950;2023-02-15T16:41:32;13.13;;;6.93;;
72053;SDS011;59918;51.280;7.950;2023-02-15T16:43:58;13.02;;;7.25;;
72053;SDS011;59918;51.280;7.950;2023-02-15T16:46:34;12.88;;;6.65;;
72053;SDS011;59918;51.280;7.950;2023-02-15T16:49:14;11.05;;;7.63;;
72053;SDS011;59918;51.280;7.950;2023-02-15T16:51:44;21.80;;;7.72;;
72053;SDS011;59918;51.280;7.950;2023-02-15T16:54:20;12.68;;;7.18;;
72053;SDS011;59918;51.280;7.950;2023-02-15T16:56:47;14.45;;;7.55;;
72053;SDS011;59918;51.280;7.950;2023-02-15T16:59:20;14.05;;;7.70;;
72053;SDS011;59918;51.280;7.950;2023-02-15T17:01:47;11.23;;;7.30;;
72053;SDS011;59918;51.280;7.950;2023-02-15T17:04:22;13.55;;;7.85;;
72053;SDS011;59918;51.280;7.950;2023-02-15T17:07:03;13.32;;;8.40;;
72053;SDS011;59918;51.280;7.950;2023-02-15T17:09:30;17.20;;;8.43;;
72053;SDS011;59918;51.280;7.950;2023-02-15T17:11:56;12.80;;;7.95;;
72053;SDS011;59918;51.280;7.950;2023-02-15T17:14:31;15.85;;;8.45;;
72053;SDS011;59918;51.280;7.950;2023-02-15T17:17:12;16.08;;;8.63;;
72053;SDS011;59918;51.280;7.950;2023-02-15T17:19:54;13.15;;;8.10;;
72053;SDS011;59918;51.280;7.950;2023-02-15T17:22:21;13.15;;;8.18;;
72053;SDS011;59918;51.280;7.950;2023-02-15T17:24:48;15.43;;;8.15;;
72053;SDS011;59918;51.280;7.950;2023-02-15T17:27:16;12.32;;;7.78;;
72053;SDS011;59918;51.280;7.950;2023-02-15T17:29:47;15.82;;;8.93;;
72053;SDS011;59918;51.280;7.950;2023-02-15T17:32:17;13.77;;;8.57;;
72053;SDS011;59918;51.280;7.950;2023-02-15T17:37:23;18.42;;;9.60;;
72053;SDS011;59918;51.280;7.950;2023-02-15T17:39:53;14.80;;;8.82;;
72053;SDS011;59918;51.280;7.950;2023-02-15T17:42:22;16.25;;;9.52;;
72053;SDS011;59918;51.280;7.950;2023-02-15T17:44:47;17.08;;;10.23;;
72053;SDS011;59918;51.280;7.950;2023-02-15T17:47:22;16.38;;;9.80;;
72053;SDS011;59918;51.280;7.950;2023-02-15T17:49:49;19.42;;;10.25;;
72053;SDS011;59918;51.280;7.950;2023-02-15T17:52:14;21.17;;;9.35;;
72053;SDS011;59918;51.280;7.950;2023-02-15T17:54:41;17.40;;;10.45;;
72053;SDS011;59918;51.280;7.950;2023-02-15T17:57:25;17.67;;;10.10;;
72053;SDS011;59918;51.280;7.950;2023-02-15T17:59:50;18.65;;;10.68;;
72053;SDS011;59918;51.280;7.950;2023-02-15T18:02:16;20.65;;;11.02;;
72053;SDS011;59918;51.280;7.950;2023-02-15T18:04:41;18.88;;;10.77;;
72053;SDS011;59918;51.280;7.950;2023-02-15T18:07:07;21.42;;;10.93;;
72053;SDS011;59918;51.280;7.950;2023-02-15T18:09:36;16.08;;;9.90;;
72053;SDS011;59918;51.280;7.950;2023-02-15T18:12:02;18.20;;;10.82;;
72053;SDS011;59918;51.280;7.950;2023-02-15T18:14:49;19.02;;;10.40;;
72053;SDS011;59918;51.280;7.950;2023-02-15T18:17:16;18.17;;;10.20;;
72053;SDS011;59918;51.280;7.950;2023-02-15T18:19:43;22.70;;;11.77;;
72053;SDS011;59918;51.280;7.950;2023-02-15T18:22:15;22.08;;;10.93;;
72053;SDS011;59918;51.280;7.950;2023-02-15T18:24:47;21.02;;;10.45;;
72053;SDS011;59918;51.280;7.950;2023-02-15T18:27:13;15.23;;;9.88;;
72053;SDS011;59918;51.280;7.950;2023-02-15T18:29:40;16.25;;;10.35;;
72053;SDS011;59918;51.280;7.950;2023-02-15T18:32:06;20.50;;;11.25;;
72053;SDS011;59918;51.280;7.950;2023-02-15T18:34:41;16.15;;;10.45;;
72053;SDS011;59918;51.280;7.950;2023-02-15T18:37:12;22.45;;;11.38;;